• Join FlightAware (Why Join?)
  • Login
  • US Flag 
05:22PM EST


 

Airport Tracker/Info


-or-


 

Live Flight TrackerFlight Track Log ✈ VH-VJE ✈ 19-Apr-2013 ✈ YCCA / CCL - YBBN / BNE

Flight Track Log - Related Links

Times and Time Zones

All times are in EDT time to prevent confusion due to time zone crossing. See the VH-VJE flight status page for this flight to view local times or setup timezone preferences in your user account.

Time Position Orientation Groundspeed Altitude Reporting Facility
EDT Latitude Longitude Course Direction KTS MPH feet Rate Location/Type
06:28PM -26.8142 150.7836 106° East 9,000  Level Aus ATC (Calculated)
06:30PM -26.8412 150.8846 102° East 9,000 -180 Level Aus ATC (Calculated)
06:32PM -26.8582 150.9522 106° East  Level Estimated
06:32PM -26.8470 150.9147 106° East 219 252 8,400  Level Aus ATC (RADAR)
06:35PM -26.8965 151.0866 108° East 237 273 9,000 120 Climbing Aus ATC (RADAR)
06:36PM -26.9182 151.1858 104° East 220 253 9,000  Level Aus ATC (RADAR)
06:38PM -26.9496 151.3102 106° East 216 249 9,000  Level Aus ATC (RADAR)
06:41PM -27.0027 151.5031 107° East 213 245 9,000  Level Aus ATC (RADAR)
06:43PM -27.0267 151.5894 107° East 215 247 9,000  Level Aus ATC (RADAR)
06:43PM -27.0250 151.5870 107° East 9,000  Level FlightAware
06:43PM -27.0350 151.6280 105° East 9,000  Level FlightAware
06:44PM -27.0420 151.6560 106° East 9,000  Level FlightAware
06:44PM -27.0480 151.6810 105° East 9,000  Level FlightAware
06:44PM -27.0546 151.7104 105° East 214 246 9,000  Level Aus ATC (RADAR)
06:44PM -27.0560 151.7160 105° East 9,000  Level FlightAware
06:45PM -27.0650 151.7470 108° East 9,000  Level FlightAware
06:45PM -27.0720 151.7740 106° East 9,000  Level FlightAware
06:46PM -27.0810 151.8070 107° East 9,000  Level FlightAware
06:46PM -27.0890 151.8380 106° East 9,000  Level FlightAware
06:47PM -27.0950 151.8660 104° East 9,000  Level FlightAware
06:47PM -27.1010 151.8970 102° East 9,000  Level FlightAware
06:48PM -27.1060 151.9190 104° East 9,000  Level FlightAware
06:48PM -27.1160 151.9540 108° East 9,000  Level FlightAware
06:49PM -27.1196 151.9688 108° East 202 232 9,000 -60 Level Aus ATC (RADAR)
06:49PM -27.1250 151.9850 108° East 9,000 -60 Level FlightAware
06:49PM -27.1310 152.0110 105° East 9,000 -60 Level FlightAware
06:50PM -27.1380 152.0420 104° East 9,000 -60 Level FlightAware
06:50PM -27.1460 152.0730 106° East 9,000 -60 Level FlightAware
06:51PM -27.1520 152.0980 105° East 9,100 -60 Climbing FlightAware
06:51PM -27.1600 152.1290 106° East 9,000 -60 Descending FlightAware
06:51PM -27.1680 152.1560 108° East 9,000 -60 Level FlightAware
06:52PM -27.1780 152.1860 111° Southeast 9,000 -60 Level FlightAware
06:52PM -27.1870 152.2160 109° East 9,000 -60 Level FlightAware
06:53PM -27.1930 152.2400 106° East 9,000 -60 Level FlightAware
06:53PM -27.2010 152.2740 105° East 9,000 -120 Level FlightAware
06:54PM -27.2050 152.2880 108° East 9,100 -120 Climbing FlightAware
06:54PM -27.2100 152.3100 104° East 9,000 -300 Descending FlightAware
06:54PM -27.2164 152.3377 104° East 211 243 8,900 -180 Descending Aus ATC (RADAR)
06:55PM -27.2190 152.3490 104° East 9,000 -180 Climbing FlightAware
06:55PM -27.2220 152.3650 102° East 9,000 -240 Level FlightAware
06:55PM -27.2290 152.3920 106° East 9,000 -240 Level FlightAware
06:56PM -27.2380 152.4230 108° East 9,000 -240 Level FlightAware
06:56PM -27.2460 152.4540 106° East 9,000 -300 Level FlightAware
06:57PM -27.2510 152.4830 101° East 9,000 -360 Level FlightAware
06:57PM -27.2550 152.5160 98° East 8,800 -420 Descending FlightAware
06:58PM -27.2590 152.5500 98° East 8,600 -420 Descending FlightAware
06:58PM -27.2620 152.5680 101° East 8,600 -420 Level FlightAware
06:58PM -27.2670 152.5950 102° East 8,400 -540 Descending FlightAware
06:59PM -27.2717 152.6237 102° East 222 255 8,200 -720 Descending Aus ATC (RADAR)
06:59PM -27.2730 152.6310 102° East 8,100 -720 Descending FlightAware
06:59PM -27.2790 152.6590 104° East 7,800 -720 Descending FlightAware
07:00PM -27.2870 152.6950 104° East 7,500 -720 Descending FlightAware
07:00PM -27.2910 152.7130 104° East 7,300 -840 Descending FlightAware
07:00PM -27.2964 152.7417 104° East 231 266 7,000 -660 Descending Aus ATC (RADAR)
07:00PM -27.2960 152.7430 104° East 7,000 -660 Level FlightAware
07:01PM -27.3020 152.7820 100° East 6,500 -660 Descending FlightAware
07:01PM -27.3070 152.8110 101° East 6,200 -600 Descending FlightAware
07:02PM -27.3120 152.8470 99° East 5,600 -600 Descending FlightAware
07:02PM -27.3050 152.8810 77° East 5,100 -360 Descending FlightAware
07:03PM -27.2930 152.9050 61° Northeast 4,700 -120 Descending FlightAware
07:03PM -27.2780 152.9350 61° Northeast 4,200 360 Descending FlightAware
07:03PM -27.3043 152.8858 61° Northeast 223 257 5,000 -840 Climbing Aus ATC (RADAR)
07:04PM -27.2680 152.9560 61° Northeast 3,900 -1,560 Descending FlightAware
07:05PM -27.2592 153.0202 61° Northeast 171 197 2,900 -960 Descending Aus ATC (RADAR)
07:06PM -27.2962 153.0783 126° Southeast 145 167 1,400 -1,020 Descending Aus ATC (RADAR)
07:07PM -27.3041 153.0842 146° Southeast 138 159 1,200 -720 Descending Aus ATC (RADAR)
07:08PM -27.3518 153.1212 145° Southeast 125 144 200 -660 Descending Aus ATC (RADAR)